Time;durP1;ratioP1;P1;durP2;ratioP2;P2;SDS_P1;SDS_P2;PMS_P1;PMS_P2;Temp;Humidity;BMP_temperature;BMP_pressure;BME280_temperature;BME280_humidity;BME280_pressure;Samples;Min_cycle;Max_cycle;Signal;HPM_P1;HPM_P2
2023/01/04 00:01:09;;;;;;;18.33;9.77;;;15.40;65.00;;;;;;6211487;28;20065;-74
2023/01/04 00:04:10;;;;;;;23.20;9.75;;;15.40;64.90;;;;;;6212174;28;20053;-73
2023/01/04 00:07:11;;;;;;;21.30;10.55;;;15.40;65.70;;;;;;6217142;28;20045;-72
2023/01/04 00:10:13;;;;;;;25.50;10.45;;;15.30;64.90;;;;;;6214271;28;20053;-72
2023/01/04 00:13:13;;;;;;;18.63;9.70;;;15.30;64.90;;;;;;6216568;28;20042;-72
2023/01/04 00:16:18;;;;;;;23.58;10.60;;;15.30;65.00;;;;;;6217346;28;20395;-73
2023/01/04 00:19:18;;;;;;;23.52;10.73;;;15.20;65.20;;;;;;6219600;28;20069;-72
2023/01/04 00:22:19;;;;;;;18.80;8.90;;;15.20;65.20;;;;;;6220430;28;20058;-73
2023/01/04 00:25:20;;;;;;;17.83;9.43;;;15.30;65.30;;;;;;6221296;28;20033;-72
2023/01/04 00:28:21;;;;;;;21.73;9.38;;;15.20;65.20;;;;;;6217845;28;20244;-71
2023/01/04 00:31:23;;;;;;;22.13;10.25;;;15.30;65.30;;;;;;6212905;28;20045;-72
2023/01/04 00:34:24;;;;;;;19.52;9.48;;;15.20;65.30;;;;;;6202166;28;20111;-71
2023/01/04 00:37:24;;;;;;;26.90;9.98;;;15.30;65.30;;;;;;6221124;28;20455;-72
2023/01/04 00:40:25;;;;;;;22.80;10.35;;;15.30;65.30;;;;;;6240583;28;20385;-72
2023/01/04 00:43:26;;;;;;;19.40;9.73;;;15.20;65.10;;;;;;6241957;28;20048;-72
2023/01/04 00:46:27;;;;;;;22.77;10.10;;;15.30;65.20;;;;;;6239290;28;20119;-72
2023/01/04 00:49:29;;;;;;;23.05;10.32;;;15.30;65.20;;;;;;6243794;28;20076;-73
2023/01/04 00:52:30;;;;;;;21.98;9.90;;;15.30;65.20;;;;;;6212880;28;20375;-71
2023/01/04 00:55:31;;;;;;;19.05;9.52;;;15.30;65.20;;;;;;6239145;28;20037;-73
2023/01/04 00:58:31;;;;;;;28.25;10.65;;;15.30;65.10;;;;;;6241771;28;20094;-72
2023/01/04 01:01:33;;;;;;;21.60;10.65;;;15.30;65.10;;;;;;6232734;28;20411;-73
2023/01/04 01:04:34;;;;;;;20.45;10.10;;;15.30;65.10;;;;;;6237922;28;20041;-71
2023/01/04 01:07:35;;;;;;;24.05;10.65;;;15.40;65.10;;;;;;6239315;28;20061;-72
2023/01/04 01:10:36;;;;;;;23.35;10.75;;;15.40;65.10;;;;;;6243187;28;20034;-73
2023/01/04 01:13:37;;;;;;;23.33;8.98;;;15.50;65.10;;;;;;6244046;28;20033;-72
2023/01/04 01:16:38;;;;;;;19.48;9.85;;;15.30;64.90;;;;;;6243493;28;20124;-72
2023/01/04 01:19:39;;;;;;;20.60;10.00;;;15.30;65.00;;;;;;6242628;28;20482;-72
2023/01/04 01:22:40;;;;;;;28.20;10.68;;;15.30;65.00;;;;;;6220229;28;20045;-74
2023/01/04 01:25:41;;;;;;;24.65;9.88;;;15.30;65.20;;;;;;6226387;28;20029;-72
2023/01/04 01:28:43;;;;;;;20.83;10.13;;;15.30;65.20;;;;;;6244143;28;20057;-72
2023/01/04 01:31:43;;;;;;;21.73;10.20;;;15.20;65.20;;;;;;6226089;28;20037;-72
2023/01/04 01:34:44;;;;;;;18.75;9.38;;;15.20;65.30;;;;;;6216696;28;20423;-72
2023/01/04 01:37:45;;;;;;;19.60;10.57;;;15.20;65.20;;;;;;6213735;28;20045;-72
2023/01/04 01:40:46;;;;;;;19.23;9.25;;;15.20;65.30;;;;;;6215917;28;20359;-71
2023/01/04 01:44:05;;;;;;;19.40;9.95;;;15.10;65.10;;;;;;6216091;28;20058;-72
2023/01/04 01:47:14;;;;;;;20.83;9.45;;;15.10;65.20;;;;;;6211648;28;20046;-73
2023/01/04 01:50:23;;;;;;;20.92;9.73;;;15.10;65.10;;;;;;6197530;28;20041;-74
2023/01/04 01:53:27;;;;;;;19.38;10.35;;;15.00;65.10;;;;;;6211344;28;20038;-74
2023/01/04 01:56:32;;;;;;;20.23;9.25;;;15.10;65.20;;;;;;6211401;28;20448;-73
2023/01/04 01:59:37;;;;;;;23.35;10.65;;;15.10;65.30;;;;;;6212309;28;20034;-73
2023/01/04 02:03:12;;;;;;;28.42;9.25;;;15.10;65.20;;;;;;6211665;28;20027;-73
2023/01/04 02:06:19;;;;;;;21.40;9.15;;;15.10;65.40;;;;;;6234468;28;20156;-73
2023/01/04 02:09:22;;;;;;;24.30;10.00;;;15.10;65.40;;;;;;6239813;28;20033;-73
2023/01/04 02:12:24;;;;;;;20.73;9.35;;;15.10;65.50;;;;;;6240439;28;20030;-73
2023/01/04 02:15:28;;;;;;;22.40;9.88;;;15.10;65.50;;;;;;6237970;28;20116;-73
2023/01/04 02:18:36;;;;;;;21.30;10.23;;;15.10;65.50;;;;;;6236833;28;20037;-72
2023/01/04 02:22:05;;;;;;;24.33;10.95;;;15.10;66.40;;;;;;6226068;28;20034;-72
2023/01/04 02:25:18;;;;;;;20.35;9.32;;;15.10;65.70;;;;;;6236445;28;20042;-72
2023/01/04 02:28:31;;;;;;;22.63;10.55;;;15.20;65.70;;;;;;6237795;28;20037;-74
2023/01/04 02:31:50;;;;;;;21.98;10.35;;;15.10;65.70;;;;;;6240716;28;20459;-72
2023/01/04 02:35:20;;;;;;;21.13;10.38;;;15.10;65.80;;;;;;6240789;28;20057;-72
2023/01/04 02:38:30;;;;;;;;;;;15.10;66.00;;;;;;6216486;28;20042;-72
2023/01/04 02:41:57;;;;;;;21.02;10.68;;;15.10;65.90;;;;;;6203307;28;19917;-72
2023/01/04 02:45:03;;;;;;;31.48;12.27;;;15.10;66.00;;;;;;6199690;28;20117;-72
2023/01/04 02:51:33;;;;;;;29.55;11.77;;;15.00;66.30;;;;;;6212195;28;20143;-73
2023/01/04 02:54:34;;;;;;;26.58;12.07;;;14.90;66.50;;;;;;6215429;28;20420;-72
2023/01/04 02:57:57;;;;;;;23.05;11.77;;;14.90;66.70;;;;;;6197818;28;20057;-71
2023/01/04 03:08:30;;;;;;;28.63;11.18;;;14.80;67.20;;;;;;6166508;28;20452;-72
2023/01/04 03:15:08;;;;;;;32.60;11.70;;;14.90;67.20;;;;;;6179426;28;20042;-71
2023/01/04 03:18:14;;;;;;;;;;;14.90;67.20;;;;;;6172986;28;20173;-72
2023/01/04 03:21:17;;;;;;;23.63;10.23;;;14.80;67.10;;;;;;6175103;28;20278;-73
2023/01/04 03:48:33;;;;;;;19.02;9.43;;;14.80;67.30;;;;;;6236565;28;20052;-73
2023/01/04 03:51:37;;;;;;;18.13;9.57;;;14.80;67.20;;;;;;6238474;28;20423;-72
2023/01/04 03:54:41;;;;;;;16.80;9.27;;;14.70;67.10;;;;;;6198550;28;20041;-72
2023/01/04 03:57:43;;;;;;;18.63;9.38;;;14.70;67.10;;;;;;6235314;28;20077;-72
2023/01/04 04:00:45;;;;;;;33.10;10.95;;;14.70;67.10;;;;;;6237606;28;20045;-72
2023/01/04 04:10:25;;;;;;;21.58;9.77;;;14.70;67.10;;;;;;6236378;28;20045;-73
2023/01/04 04:13:26;;;;;;;17.45;9.25;;;14.70;67.10;;;;;;6240889;28;20423;-72
2023/01/04 04:16:27;;;;;;;19.58;9.48;;;14.70;67.00;;;;;;6220818;28;20467;-72
2023/01/04 04:19:28;;;;;;;20.65;9.43;;;14.70;66.90;;;;;;6216371;28;20217;-71
2023/01/04 04:22:29;;;;;;;22.08;8.77;;;14.70;66.70;;;;;;6234399;28;20061;-73
2023/01/04 04:25:30;;;;;;;24.42;9.80;;;14.70;66.90;;;;;;6240751;28;20050;-72
2023/01/04 04:28:31;;;;;;;20.77;9.45;;;14.60;66.90;;;;;;6240758;28;20053;-74
2023/01/04 04:31:32;;;;;;;24.25;8.75;;;14.60;66.90;;;;;;6238270;28;20362;-72
2023/01/04 04:34:33;;;;;;;17.05;8.70;;;14.60;66.80;;;;;;6225369;28;20184;-73
2023/01/04 04:37:33;;;;;;;24.38;9.35;;;14.60;66.70;;;;;;6230827;28;20132;-72
2023/01/04 04:43:57;;;;;;;24.73;10.05;;;14.50;66.80;;;;;;6233438;28;20058;-71
2023/01/04 04:46:58;;;;;;;19.70;9.55;;;14.50;66.80;;;;;;6236752;28;20076;-72
2023/01/04 04:49:59;;;;;;;16.83;9.45;;;14.50;66.90;;;;;;6234135;28;20029;-72
2023/01/04 04:53:00;;;;;;;19.38;8.35;;;14.40;66.90;;;;;;6234155;28;20087;-72
2023/01/04 04:56:00;;;;;;;17.10;8.38;;;14.40;67.10;;;;;;6236395;28;20112;-73
2023/01/04 04:59:03;;;;;;;25.95;10.00;;;14.40;67.20;;;;;;6234486;28;20040;-72
2023/01/04 05:02:04;;;;;;;23.20;9.23;;;14.30;67.10;;;;;;6237742;28;20045;-72
2023/01/04 05:05:05;;;;;;;21.15;9.30;;;14.40;67.20;;;;;;6236003;28;20378;-72
2023/01/04 05:08:06;;;;;;;25.00;9.00;;;14.40;67.30;;;;;;6234928;28;20057;-71
2023/01/04 05:11:09;;;;;;;21.27;9.85;;;14.40;67.20;;;;;;6239141;28;20374;-72
2023/01/04 05:14:09;;;;;;;17.10;9.32;;;14.50;67.20;;;;;;6236454;28;20359;-72
2023/01/04 05:17:10;;;;;;;18.20;9.48;;;14.50;67.10;;;;;;6236636;28;20041;-72
2023/01/04 05:20:11;;;;;;;18.35;8.82;;;14.50;67.20;;;;;;6235284;28;20124;-72
2023/01/04 05:23:14;;;;;;;20.83;9.00;;;14.50;67.10;;;;;;6235350;28;20438;-72
2023/01/04 05:26:15;;;;;;;18.73;8.77;;;14.50;67.10;;;;;;6221209;28;20045;-72
2023/01/04 05:32:35;;;;;;;21.23;9.30;;;14.50;67.00;;;;;;6209920;28;20519;-72
2023/01/04 05:35:36;;;;;;;25.30;8.82;;;14.60;66.90;;;;;;6209997;28;20026;-72
2023/01/04 05:38:37;;;;;;;15.48;7.95;;;14.50;66.80;;;;;;6211236;28;20034;-72
2023/01/04 05:44:58;;;;;;;17.70;8.02;;;14.50;67.00;;;;;;6207205;28;20034;-73
2023/01/04 05:47:59;;;;;;;16.42;7.65;;;14.50;66.90;;;;;;6210695;28;20486;-73
2023/01/04 05:51:00;;;;;;;19.77;8.77;;;14.50;66.90;;;;;;6214016;28;20119;-73
2023/01/04 05:54:00;;;;;;;18.77;8.30;;;14.50;67.00;;;;;;6210258;28;20100;-74
2023/01/04 05:57:01;;;;;;;19.35;8.32;;;14.50;67.00;;;;;;6216963;28;20049;-73
2023/01/04 06:00:04;;;;;;;17.55;8.43;;;14.60;67.00;;;;;;6230082;28;20049;-72
2023/01/04 06:03:13;;;;;;;15.52;6.85;;;14.60;66.90;;;;;;6237074;28;20125;-74
2023/01/04 06:06:13;;;;;;;14.73;7.57;;;14.60;66.60;;;;;;6239056;28;20030;-72
2023/01/04 06:09:14;;;;;;;14.38;7.22;;;14.60;66.50;;;;;;6241939;28;20052;-74
2023/01/04 06:12:15;;;;;;;15.93;8.00;;;14.60;66.40;;;;;;6236733;28;20099;-72
2023/01/04 06:15:16;;;;;;;18.02;8.73;;;14.60;66.40;;;;;;6226083;28;20057;-72
2023/01/04 06:18:17;;;;;;;23.52;8.90;;;14.60;66.50;;;;;;6242203;28;20116;-73
2023/01/04 06:21:18;;;;;;;17.27;7.97;;;14.60;66.40;;;;;;6244736;28;20068;-73
2023/01/04 06:24:19;;;;;;;19.88;8.25;;;14.60;66.40;;;;;;6237636;28;20041;-73
2023/01/04 06:27:20;;;;;;;16.58;7.97;;;14.60;66.30;;;;;;6239963;28;21026;-72
2023/01/04 06:30:21;;;;;;;15.00;7.50;;;14.60;66.20;;;;;;6216406;28;20128;-73
2023/01/04 06:33:21;;;;;;;18.77;8.15;;;14.60;66.00;;;;;;6239730;28;20041;-71
2023/01/04 06:36:22;;;;;;;17.30;8.50;;;14.60;66.10;;;;;;6237819;28;20040;-72
2023/01/04 06:39:23;;;;;;;23.10;7.78;;;14.60;66.10;;;;;;6239184;28;20340;-74
2023/01/04 06:45:43;;;;;;;18.30;7.75;;;14.50;65.90;;;;;;6241867;28;20190;-73
2023/01/04 06:48:44;;;;;;;17.20;7.95;;;14.40;66.00;;;;;;6211568;28;20033;-73
2023/01/04 06:51:46;;;;;;;15.57;7.18;;;14.40;66.10;;;;;;6227632;28;20037;-73
2023/01/04 06:54:47;;;;;;;15.73;7.57;;;14.40;66.20;;;;;;6242592;28;20041;-73
2023/01/04 06:57:47;;;;;;;13.18;6.35;;;14.30;66.20;;;;;;6244658;28;20045;-73
2023/01/04 07:00:50;;;;;;;12.48;6.03;;;14.30;66.30;;;;;;6240336;28;20496;-72
2023/01/04 07:03:51;;;;;;;16.85;6.75;;;14.30;66.30;;;;;;6238155;28;20033;-73
2023/01/04 07:06:52;;;;;;;10.25;5.47;;;14.20;66.20;;;;;;6241585;28;20040;-73
2023/01/04 07:09:53;;;;;;;13.18;5.95;;;14.20;66.30;;;;;;6224289;28;20050;-72
2023/01/04 07:12:54;;;;;;;11.90;5.72;;;14.20;66.10;;;;;;6243989;28;20044;-73
2023/01/04 07:15:55;;;;;;;14.20;5.93;;;14.20;66.20;;;;;;6243951;28;20387;-73
2023/01/04 07:18:56;;;;;;;12.57;5.53;;;14.20;66.20;;;;;;6243028;28;20037;-72
2023/01/04 07:21:57;;;;;;;16.05;7.13;;;14.20;66.10;;;;;;6244349;28;20057;-72
2023/01/04 07:24:58;;;;;;;11.32;5.40;;;14.20;65.90;;;;;;6237312;28;20052;-71
2023/01/04 07:27:59;;;;;;;10.45;5.93;;;14.20;65.70;;;;;;6212689;28;20356;-73
2023/01/04 07:31:06;;;;;;;11.80;5.93;;;14.20;65.60;;;;;;6235120;28;20034;-73
2023/01/04 07:34:07;;;;;;;16.38;6.50;;;14.20;65.60;;;;;;6235109;28;20048;-74
2023/01/04 07:37:08;;;;;;;12.10;5.43;;;14.20;65.50;;;;;;6240645;28;20109;-72
2023/01/04 07:40:10;;;;;;;11.85;5.57;;;14.20;65.40;;;;;;6243773;28;20045;-73
2023/01/04 07:43:11;;;;;;;14.75;6.60;;;14.10;65.50;;;;;;6243511;28;20041;-72
2023/01/04 07:46:11;;;;;;;18.73;7.22;;;14.10;65.60;;;;;;6208470;28;20050;-73
2023/01/04 07:49:15;;;;;;;16.25;6.53;;;14.10;65.60;;;;;;6213570;28;20054;-74
2023/01/04 07:52:16;;;;;;;17.58;7.60;;;14.10;65.70;;;;;;6218710;28;20466;-73
2023/01/04 07:55:17;;;;;;;18.23;7.03;;;14.10;65.70;;;;;;6218946;28;20117;-74
2023/01/04 07:58:17;;;;;;;16.58;6.53;;;14.00;65.70;;;;;;6220537;28;20050;-72
2023/01/04 08:01:19;;;;;;;14.43;6.25;;;14.00;65.70;;;;;;6222244;28;20049;-73
2023/01/04 08:04:22;;;;;;;12.77;5.28;;;14.00;65.70;;;;;;6222042;28;20110;-73
2023/01/04 08:07:23;;;;;;;12.52;5.88;;;13.90;65.70;;;;;;6218453;28;20050;-74
2023/01/04 08:10:24;;;;;;;13.82;5.93;;;13.90;65.70;;;;;;6217202;28;20042;-73
2023/01/04 08:13:25;;;;;;;12.48;5.85;;;13.90;65.90;;;;;;6220440;28;20458;-72
2023/01/04 08:16:31;;;;;;;15.73;6.50;;;13.80;65.90;;;;;;6242308;28;20534;-73
2023/01/04 08:19:32;;;;;;;12.30;6.07;;;13.80;66.00;;;;;;6244043;28;20522;-72
2023/01/04 08:22:33;;;;;;;16.00;6.22;;;13.80;65.90;;;;;;6242739;28;20035;-73
2023/01/04 08:25:34;;;;;;;15.25;6.78;;;13.80;66.00;;;;;;6240148;28;20033;-73
2023/01/04 08:28:35;;;;;;;18.27;6.80;;;13.80;65.90;;;;;;6243996;28;20118;-73
2023/01/04 08:31:37;;;;;;;27.27;6.57;;;13.80;65.90;;;;;;6220224;28;20053;-72
2023/01/04 08:34:38;;;;;;;16.02;6.65;;;13.80;65.90;;;;;;6221836;28;20045;-73
2023/01/04 08:37:39;;;;;;;13.73;6.90;;;13.70;66.00;;;;;;6243203;28;20638;-72
2023/01/04 08:40:40;;;;;;;16.67;6.80;;;13.80;66.00;;;;;;6243423;28;20068;-74
2023/01/04 08:43:43;;;;;;;21.27;8.05;;;13.90;65.90;;;;;;6242037;28;20175;-72
2023/01/04 08:46:44;;;;;;;15.80;6.75;;;13.90;65.80;;;;;;6243862;28;20026;-74
2023/01/04 08:49:45;;;;;;;24.98;7.90;;;13.90;65.70;;;;;;6226365;28;20099;-72
2023/01/04 08:52:46;;;;;;;16.33;6.35;;;14.00;65.80;;;;;;6242877;28;20041;-73
2023/01/04 08:55:51;;;;;;;27.52;8.55;;;14.00;65.70;;;;;;6243786;28;20045;-73
2023/01/04 08:58:52;;;;;;;19.83;7.35;;;14.00;65.50;;;;;;6238199;28;20060;-73
2023/01/04 09:01:53;;;;;;;14.48;6.85;;;14.00;65.50;;;;;;6242182;28;20053;-73
2023/01/04 09:04:58;;;;;;;16.17;6.88;;;14.10;65.50;;;;;;6233587;28;20042;-75
2023/01/04 09:07:59;;;;;;;18.70;7.65;;;14.10;65.50;;;;;;6215276;28;20345;-74
2023/01/04 09:11:05;;;;;;;16.00;7.30;;;14.10;65.20;;;;;;6218717;28;20096;-74
2023/01/04 09:14:09;;;;;;;16.77;7.45;;;14.10;65.30;;;;;;6221991;28;20756;-73
2023/01/04 09:17:10;;;;;;;15.85;7.55;;;14.10;65.30;;;;;;6216937;28;20057;-74
2023/01/04 09:20:11;;;;;;;13.90;6.57;;;14.00;65.30;;;;;;6244942;28;20056;-73
2023/01/04 09:23:12;;;;;;;16.85;6.13;;;14.00;65.40;;;;;;6243620;28;20037;-72
2023/01/04 09:26:20;;;;;;;13.75;6.65;;;14.00;65.40;;;;;;6231332;28;20123;-75
2023/01/04 09:29:23;;;;;;;14.30;6.65;;;14.00;65.30;;;;;;6218754;28;20049;-72
2023/01/04 09:32:24;;;;;;;11.45;5.75;;;14.00;65.10;;;;;;6229158;28;20060;-74
2023/01/04 09:35:25;;;;;;;13.32;6.22;;;14.00;64.80;;;;;;6219762;28;20510;-72
2023/01/04 09:38:26;;;;;;;10.95;5.28;;;14.10;64.50;;;;;;6225005;28;20055;-74
2023/01/04 09:41:42;;;;;;;15.52;5.63;;;14.10;64.10;;;;;;6243555;28;20175;-73
2023/01/04 09:44:49;;;;;;;13.32;6.47;;;14.10;63.90;;;;;;6245857;28;20037;-72
2023/01/04 09:47:52;;;;;;;19.92;7.68;;;14.20;64.00;;;;;;6241039;28;20037;-73
2023/01/04 09:50:58;;;;;;;17.75;8.48;;;14.30;63.90;;;;;;6227037;28;20060;-73
2023/01/04 09:54:10;;;;;;;22.27;9.32;;;14.30;63.70;;;;;;6243844;28;20042;-73
2023/01/04 09:57:34;;;;;;;14.93;7.32;;;14.40;63.60;;;;;;6243680;28;20037;-73
2023/01/04 10:00:41;;;;;;;15.25;6.07;;;14.50;63.30;;;;;;6221292;28;20387;-72
2023/01/04 10:04:26;;;;;;;12.45;5.72;;;14.60;62.90;;;;;;6226194;28;20033;-73
2023/01/04 10:07:30;;;;;;;11.05;5.35;;;14.70;62.80;;;;;;6202321;28;20022;-73
2023/01/04 10:10:40;;;;;;;10.23;5.22;;;14.90;61.80;;;;;;6216726;28;20335;-73
2023/01/04 10:14:13;;;;;;;11.25;5.47;;;15.00;61.20;;;;;;6239056;28;20103;-73
2023/01/04 10:17:48;;;;;;;24.05;7.30;;;15.30;61.30;;;;;;6239345;28;20076;-73
2023/01/04 10:21:00;;;;;;;22.05;10.05;;;15.50;59.90;;;;;;6239938;28;20490;-73
2023/01/04 10:24:21;;;;;;;13.68;6.45;;;15.60;59.40;;;;;;6218116;28;20133;-72
2023/01/04 10:27:47;;;;;;;18.02;7.57;;;15.70;59.30;;;;;;6215687;28;20149;-73
2023/01/04 10:30:48;;;;;;;14.98;6.85;;;15.80;58.90;;;;;;6216562;28;20371;-73
2023/01/04 10:33:57;;;;;;;20.60;7.82;;;15.90;58.60;;;;;;6217459;28;20074;-72
2023/01/04 10:37:03;;;;;;;17.27;8.25;;;16.10;58.10;;;;;;6237896;28;20099;-72
2023/01/04 10:40:13;;;;;;;18.75;6.65;;;16.20;57.70;;;;;;6238137;28;20103;-73
2023/01/04 10:43:43;;;;;;;16.73;6.68;;;16.30;57.50;;;;;;6214854;28;20034;-72
2023/01/04 10:46:43;;;;;;;;;;;16.50;57.00;;;;;;6226002;28;20087;-73
2023/01/04 10:49:52;;;;;;;13.27;7.50;;;16.70;56.60;;;;;;6240237;28;19917;-73
2023/01/04 10:53:03;;;;;;;13.32;5.88;;;16.90;55.70;;;;;;6239768;28;20576;-73
2023/01/04 10:56:17;;;;;;;9.73;4.97;;;17.10;55.00;;;;;;6245338;28;20136;-74
2023/01/04 10:59:26;;;;;;;21.13;7.63;;;17.30;54.40;;;;;;6220335;28;20359;-73
2023/01/04 11:02:43;;;;;;;18.67;8.23;;;17.60;54.00;;;;;;6227656;28;20092;-73
2023/01/04 11:05:58;;;;;;;11.82;5.57;;;17.70;53.50;;;;;;6220938;28;20038;-73
2023/01/04 11:09:03;;;;;;;12.77;6.20;;;18.00;53.20;;;;;;6214839;28;20034;-73
2023/01/04 11:12:08;;;;;;;10.43;5.30;;;18.30;52.50;;;;;;6211805;28;20049;-73
2023/01/04 11:15:09;;;;;;;16.60;7.50;;;18.50;51.60;;;;;;6218538;28;20073;-73
2023/01/04 11:18:12;;;;;;;15.55;7.15;;;18.70;51.00;;;;;;6237099;28;20075;-73
2023/01/04 11:21:15;;;;;;;15.40;6.13;;;18.80;50.90;;;;;;6236427;28;20056;-73
2023/01/04 11:24:16;;;;;;;18.10;8.13;;;19.10;50.70;;;;;;6208585;28;20034;-73
2023/01/04 11:27:23;;;;;;;12.70;6.05;;;19.40;50.20;;;;;;6233725;28;20036;-73
2023/01/04 11:30:31;;;;;;;15.75;7.20;;;19.90;49.80;;;;;;6236838;28;20056;-73
2023/01/04 11:33:50;;;;;;;13.15;6.35;;;20.30;48.70;;;;;;6232712;28;20038;-74
2023/01/04 11:36:51;;;;;;;9.25;5.25;;;20.90;47.40;;;;;;6233373;28;20450;-73
2023/01/04 11:40:15;;;;;;;17.00;6.20;;;21.30;46.20;;;;;;6222461;28;20041;-73
2023/01/04 11:43:19;;;;;;;7.50;4.47;;;21.50;45.60;;;;;;6234159;28;20079;-73
2023/01/04 11:46:24;;;;;;;14.95;6.18;;;21.80;45.00;;;;;;6236380;28;20045;-74
2023/01/04 11:49:34;;;;;;;12.15;5.78;;;21.90;44.90;;;;;;6233939;28;20037;-74
2023/01/04 11:52:36;;;;;;;11.82;5.80;;;21.60;44.90;;;;;;6221268;28;20111;-74
2023/01/04 11:55:37;;;;;;;17.70;5.32;;;21.30;45.40;;;;;;6241977;28;20412;-73
2023/01/04 11:58:39;;;;;;;9.80;5.35;;;21.00;46.00;;;;;;6217128;28;20092;-74
2023/01/04 12:01:46;;;;;;;13.75;6.10;;;20.80;46.40;;;;;;6204076;28;20375;-75
2023/01/04 12:04:48;;;;;;;10.45;4.80;;;20.50;46.60;;;;;;6246766;28;20079;-73
2023/01/04 12:07:49;;;;;;;14.48;4.85;;;20.20;46.70;;;;;;6238187;28;20034;-73
2023/01/04 12:10:49;;;;;;;9.27;4.97;;;20.00;47.10;;;;;;6234316;28;20034;-73
2023/01/04 12:13:51;;;;;;;12.40;5.55;;;19.80;47.10;;;;;;6233354;28;20088;-74
2023/01/04 12:17:12;;;;;;;13.10;5.47;;;19.60;47.20;;;;;;6237408;28;20037;-73
2023/01/04 12:20:17;;;;;;;7.57;4.13;;;19.40;47.60;;;;;;6218995;28;20327;-73
2023/01/04 12:23:19;;;;;;;9.50;4.82;;;19.30;47.60;;;;;;6237716;28;20183;-74
2023/01/04 12:26:22;;;;;;;9.65;4.55;;;19.20;47.70;;;;;;6234571;28;20037;-73
2023/01/04 12:29:23;;;;;;;8.35;4.03;;;19.10;47.80;;;;;;6248938;28;20040;-74
2023/01/04 12:32:26;;;;;;;6.35;3.72;;;19.00;47.90;;;;;;6237262;28;20041;-74
2023/01/04 12:36:03;;;;;;;17.50;4.63;;;19.00;48.00;;;;;;6238404;28;20615;-74
2023/01/04 12:39:13;;;;;;;12.77;4.20;;;18.90;48.00;;;;;;6216133;28;20067;-74
2023/01/04 12:42:18;;;;;;;9.25;4.10;;;18.80;48.00;;;;;;6240875;28;20042;-72
2023/01/04 12:45:21;;;;;;;6.03;3.20;;;18.80;47.90;;;;;;6241828;28;20131;-73
2023/01/04 12:51:47;;;;;;;7.65;4.00;;;18.70;47.20;;;;;;6234725;28;20037;-73
2023/01/04 12:55:04;;;;;;;11.13;4.50;;;18.50;47.10;;;;;;6236223;28;20477;-73
2023/01/04 12:58:26;;;;;;;7.85;3.60;;;18.40;47.30;;;;;;6239065;28;20128;-73
2023/01/04 13:01:28;;;;;;;9.07;4.05;;;18.30;47.30;;;;;;6236607;28;20160;-74
2023/01/04 13:04:39;;;;;;;10.45;5.10;;;18.30;47.20;;;;;;6238896;28;20300;-72
2023/01/04 13:07:44;;;;;;;5.28;3.30;;;18.20;47.30;;;;;;6234200;28;20355;-73
2023/01/04 13:10:45;;;;;;;6.10;3.30;;;18.20;47.30;;;;;;6217992;28;20113;-72
2023/01/04 13:13:46;;;;;;;9.05;4.20;;;18.00;47.50;;;;;;6238159;28;20445;-73
2023/01/04 13:17:01;;;;;;;6.10;3.40;;;18.00;47.60;;;;;;6241251;28;20453;-74
2023/01/04 13:20:14;;;;;;;5.65;3.00;;;17.90;47.70;;;;;;6235589;28;20042;-71
2023/01/04 13:23:16;;;;;;;6.75;3.20;;;17.90;47.70;;;;;;6233007;28;20124;-74
2023/01/04 13:26:41;;;;;;;8.43;3.22;;;17.80;47.80;;;;;;6234953;28;20112;-74
2023/01/04 13:29:42;;;;;;;10.35;3.20;;;17.80;48.00;;;;;;6235835;28;20359;-74
2023/01/04 13:32:45;;;;;;;7.47;3.20;;;17.80;47.70;;;;;;6234444;28;20113;-74
2023/01/04 13:36:00;;;;;;;8.18;4.35;;;17.80;47.80;;;;;;6194710;28;20108;-72
2023/01/04 13:39:05;;;;;;;7.80;3.67;;;17.80;47.90;;;;;;6218097;28;20045;-72
2023/01/04 13:42:14;;;;;;;6.20;3.35;;;17.80;48.00;;;;;;6236268;28;20038;-73
2023/01/04 13:45:23;;;;;;;7.18;3.60;;;17.70;48.20;;;;;;6237466;28;20041;-72
2023/01/04 13:48:25;;;;;;;8.05;4.05;;;17.60;48.40;;;;;;6220277;28;20464;-74
2023/01/04 13:51:33;;;;;;;9.93;3.70;;;17.70;48.50;;;;;;6235977;28;20112;-73
2023/01/04 13:54:34;;;;;;;7.93;3.45;;;17.70;48.70;;;;;;6215123;28;20030;-74
2023/01/04 13:57:35;;;;;;;5.50;2.80;;;17.70;48.80;;;;;;6239834;28;20032;-72
2023/01/04 14:00:42;;;;;;;6.40;3.65;;;17.70;48.70;;;;;;6236037;28;20084;-73
2023/01/04 14:04:05;;;;;;;7.73;3.80;;;17.70;48.70;;;;;;6235268;28;20459;-73
2023/01/04 14:07:06;;;;;;;8.85;3.10;;;17.70;48.60;;;;;;6236593;28;20042;-74
2023/01/04 14:10:16;;;;;;;8.00;3.15;;;17.80;48.90;;;;;;6220860;28;20096;-74
2023/01/04 14:13:18;;;;;;;8.13;3.45;;;17.80;48.90;;;;;;6237057;28;20068;-74
2023/01/04 14:16:19;;;;;;;7.20;3.25;;;17.90;48.90;;;;;;6238634;28;20037;-72
2023/01/04 14:19:41;;;;;;;8.07;3.40;;;17.90;48.90;;;;;;6210748;28;20084;-73
2023/01/04 14:22:45;;;;;;;7.20;3.45;;;17.90;49.00;;;;;;6232191;28;20037;-74
2023/01/04 14:25:54;;;;;;;10.20;3.58;;;17.90;49.00;;;;;;6223965;28;20038;-73
2023/01/04 14:28:55;;;;;;;7.70;3.25;;;17.90;48.90;;;;;;6212482;28;20080;-73
2023/01/04 14:31:56;;;;;;;11.73;3.85;;;17.90;48.80;;;;;;6215873;28;20038;-73
2023/01/04 14:35:09;;;;;;;9.70;4.32;;;17.90;48.80;;;;;;6199230;28;20051;-73
2023/01/04 14:38:17;;;;;;;6.93;3.28;;;17.90;48.90;;;;;;6235936;28;20049;-74
2023/01/04 14:41:31;;;;;;;10.02;3.47;;;17.90;48.80;;;;;;6223785;28;20479;-74
2023/01/04 14:44:34;;;;;;;8.00;3.33;;;17.90;48.50;;;;;;6240271;28;20066;-73
2023/01/04 14:47:35;;;;;;;9.00;3.78;;;17.90;48.40;;;;;;6241729;28;20045;-73
2023/01/04 14:50:36;;;;;;;10.55;4.15;;;17.80;48.40;;;;;;6204572;28;20030;-74
2023/01/04 14:53:37;;;;;;;10.80;3.97;;;17.70;48.60;;;;;;6204166;28;20117;-74
2023/01/04 14:56:39;;;;;;;7.60;3.33;;;17.70;48.80;;;;;;6204210;28;20328;-73
2023/01/04 14:59:42;;;;;;;8.70;3.58;;;17.70;49.00;;;;;;6207902;28;20042;-73
2023/01/04 15:02:48;;;;;;;6.13;3.35;;;17.60;49.20;;;;;;6207521;28;20105;-74
2023/01/04 15:05:49;;;;;;;6.15;3.40;;;17.60;49.40;;;;;;6206784;28;20117;-73
2023/01/04 15:08:51;;;;;;;13.38;3.00;;;17.50;49.50;;;;;;6210586;28;20478;-74
2023/01/04 15:11:52;;;;;;;8.00;3.75;;;17.50;49.50;;;;;;6210379;28;20045;-73
2023/01/04 15:14:53;;;;;;;12.48;5.72;;;17.40;49.50;;;;;;6204517;28;20459;-73
2023/01/04 15:17:54;;;;;;;7.22;4.03;;;17.30;49.50;;;;;;6194563;28;20046;-73
2023/01/04 15:20:55;;;;;;;5.43;2.65;;;17.20;49.60;;;;;;6203688;28;20419;-73
2023/01/04 15:23:56;;;;;;;8.52;3.13;;;17.10;49.70;;;;;;6235693;28;20026;-73
2023/01/04 15:26:57;;;;;;;6.85;3.67;;;17.10;49.70;;;;;;6237492;28;20037;-73
2023/01/04 15:29:58;;;;;;;5.78;3.60;;;17.00;49.80;;;;;;6238107;28;20428;-73
2023/01/04 15:32:59;;;;;;;6.82;3.08;;;17.00;49.90;;;;;;6238096;28;20382;-74
2023/01/04 15:36:08;;;;;;;8.18;3.65;;;16.90;49.90;;;;;;6241429;28;20037;-73
2023/01/04 15:39:13;;;;;;;7.72;3.58;;;16.90;50.00;;;;;;6240901;28;20052;-75
2023/01/04 15:45:36;;;;;;;10.73;4.53;;;16.80;50.40;;;;;;6239796;28;20034;-73
2023/01/04 15:48:38;;;;;;;5.07;3.05;;;16.70;50.50;;;;;;6242300;28;20041;-74
2023/01/04 15:51:39;;;;;;;11.15;3.75;;;16.60;50.70;;;;;;6240171;28;20060;-73
2023/01/04 15:54:41;;;;;;;8.60;3.17;;;16.60;50.80;;;;;;6239470;28;20073;-73
2023/01/04 15:57:42;;;;;;;5.40;2.70;;;16.50;51.00;;;;;;6238930;28;20450;-73
2023/01/04 16:00:43;;;;;;;7.13;3.13;;;16.50;51.20;;;;;;6236418;28;20032;-74
2023/01/04 16:03:44;;;;;;;5.55;3.03;;;16.40;51.30;;;;;;6239716;28;20030;-74
